Time;durP1;ratioP1;P1;durP2;ratioP2;P2;SDS_P1;SDS_P2;PMS_P1;PMS_P2;Temp;Humidity;BMP_temperature;BMP_pressure;BME280_temperature;BME280_humidity;BME280_pressure;Samples;Min_cycle;Max_cycle;Signal;HPM_P1;HPM_P2
2022/04/19 00:01:24;;;;;;;4.93;2.37;;;;;;;-145.69;90.50;72266.09;5075207;28;20301;-76
2022/04/19 00:03:50;;;;;;;6.97;2.10;;;;;;;-145.69;90.45;72274.06;5074858;28;20191;-76
2022/04/19 00:06:18;;;;;;;4.20;2.00;;;;;;;-145.69;89.88;72270.06;5074941;28;20676;-76
2022/04/19 00:08:45;;;;;;;5.37;2.10;;;;;;;-145.69;89.74;72262.09;5075121;28;20230;-76
2022/04/19 00:11:11;;;;;;;4.87;2.23;;;;;;;-145.69;90.06;72264.09;5075138;28;20203;-76
2022/04/19 00:13:38;;;;;;;2.77;1.70;;;;;;;-145.69;90.64;72270.06;5074872;28;20203;-76
2022/04/19 00:16:05;;;;;;;3.47;1.97;;;;;;;-145.69;90.10;72262.09;5074967;28;20234;-76
2022/04/19 00:18:32;;;;;;;4.23;2.10;;;;;;;-145.69;90.67;72282.00;5075046;28;20256;-77
2022/04/19 00:20:59;;;;;;;3.97;2.10;;;;;;;-145.69;91.32;72278.03;5074958;28;20217;-76
2022/04/19 00:23:28;;;;;;;5.10;2.07;;;;;;;-145.69;91.02;72286.00;5074658;28;20202;-76
2022/04/19 00:25:55;;;;;;;3.47;2.35;;;;;;;-145.69;90.46;72264.09;5073389;28;20446;-76
2022/04/19 00:28:21;;;;;;;3.37;1.90;;;;;;;-145.69;89.72;72254.16;5074704;28;20222;-76
2022/04/19 00:30:48;;;;;;;5.77;2.60;;;;;;;-145.69;89.41;72250.16;5074755;28;20203;-76
2022/04/19 00:33:15;;;;;;;2.73;1.97;;;;;;;-145.69;90.77;72264.09;5074466;28;20191;-76
2022/04/19 00:35:42;;;;;;;3.47;2.10;;;;;;;-145.69;89.76;72262.09;5074871;28;20203;-77
2022/04/19 00:38:09;;;;;;;4.00;2.30;;;;;;;-145.69;87.38;72230.25;5074528;28;20199;-77
2022/04/19 00:40:37;;;;;;;4.27;2.33;;;;;;;-145.69;88.93;72250.16;5075022;28;20293;-77
2022/04/19 00:43:04;;;;;;;4.33;2.30;;;;;;;-145.69;87.19;72234.25;5074639;28;20202;-76
2022/04/19 00:45:34;;;;;;;4.90;2.50;;;;;;;-145.69;88.78;72246.19;5074694;28;20206;-76
2022/04/19 00:48:02;;;;;;;4.07;2.40;;;;;;;-145.69;87.78;72246.19;5074552;28;20199;-76
2022/04/19 00:50:29;;;;;;;5.53;2.17;;;;;;;-145.69;88.70;72254.16;5074543;28;20199;-77
2022/04/19 00:52:55;;;;;;;5.37;2.60;;;;;;;-145.69;87.85;72244.19;5070180;28;20527;-76
2022/04/19 00:55:22;;;;;;;3.33;1.97;;;;;;;-145.69;87.12;72244.19;5054694;28;20208;-76
2022/04/19 00:57:51;;;;;;;3.80;2.30;;;;;;;-145.69;88.19;72252.16;5054323;28;20203;-76
2022/04/19 01:00:20;;;;;;;7.77;2.60;;;;;;;-145.69;85.63;72234.25;5054198;28;20260;-76
2022/04/19 01:02:46;;;;;;;3.57;2.33;;;;;;;-145.69;84.75;72214.34;5064081;28;20201;-76
2022/04/19 01:05:14;;;;;;;9.53;2.20;;;;;;;-145.69;86.56;72226.28;5074462;28;20199;-76
2022/04/19 01:07:45;;;;;;;4.23;2.33;;;;;;;-145.69;87.75;72250.16;5073776;28;20205;-76
2022/04/19 01:10:11;;;;;;;6.17;2.60;;;;;;;-145.69;88.88;72268.06;5074217;28;20230;-76
2022/04/19 01:15:23;;;;;;;4.03;2.37;;;;;;;-145.69;88.77;72264.09;5073488;28;20245;-76
2022/04/19 01:17:50;;;;;;;4.03;2.40;;;;;;;-145.69;89.79;72264.09;5073671;28;20242;-76
2022/04/19 01:20:18;;;;;;;4.07;2.30;;;;;;;-145.69;90.12;72270.06;5073824;28;20701;-76
2022/04/19 01:22:49;;;;;;;4.00;2.37;;;;;;;-145.69;90.08;72272.06;5073850;28;20618;-76
2022/04/19 01:25:18;;;;;;;6.40;2.30;;;;;;;-145.69;90.38;72278.03;5073421;28;20198;-76
2022/04/19 01:27:44;;;;;;;3.87;2.27;;;;;;;-145.69;91.28;72289.97;5074028;28;20207;-76
2022/04/19 01:30:11;;;;;;;5.70;2.50;;;;;;;-145.69;90.06;72276.03;5073770;28;20558;-76
2022/04/19 01:32:38;;;;;;;7.83;2.67;;;;;;;-145.69;89.21;72266.09;5073893;28;20199;-76
2022/04/19 01:35:09;;;;;;;5.97;2.80;;;;;;;-145.69;88.49;72252.16;5073526;28;20202;-76
2022/04/19 01:37:37;;;;;;;4.37;2.30;;;;;;;-145.69;87.80;72250.16;5073390;28;20631;-76
2022/04/19 01:40:17;;;;;;;4.83;2.70;;;;;;;-145.69;87.85;72250.16;5073434;28;20658;-76
2022/04/19 01:42:45;;;;;;;4.63;2.30;;;;;;;-145.69;87.54;72240.22;5072830;28;20558;-76
2022/04/19 01:45:12;;;;;;;5.30;2.70;;;;;;;-145.69;88.53;72258.13;5072630;28;20649;-76
2022/04/19 01:47:39;;;;;;;5.10;2.63;;;;;;;-145.69;89.54;72274.06;5073427;28;20206;-76
2022/04/19 01:50:08;;;;;;;5.00;2.90;;;;;;;-145.69;88.55;72276.03;5073300;28;20235;-76
2022/04/19 01:52:36;;;;;;;6.13;2.50;;;;;;;-145.69;87.33;72256.13;5072940;28;20202;-76
2022/04/19 01:55:03;;;;;;;4.93;2.77;;;;;;;-145.69;88.69;72276.03;5073217;28;20289;-76
2022/04/19 01:57:30;;;;;;;4.33;2.60;;;;;;;-145.69;88.19;72270.06;5073581;28;20604;-76
2022/04/19 01:59:57;;;;;;;8.70;3.20;;;;;;;-145.69;86.24;72250.16;5073382;28;20203;-76
2022/04/19 02:02:24;;;;;;;4.40;2.73;;;;;;;-145.69;87.66;72272.06;5072993;28;20332;-76
2022/04/19 02:04:51;;;;;;;5.67;2.97;;;;;;;-145.69;88.65;72274.06;5072528;28;20202;-76
2022/04/19 02:07:17;;;;;;;6.13;3.13;;;;;;;-145.69;88.08;72293.94;5072706;28;20670;-76
2022/04/19 02:09:44;;;;;;;5.13;2.60;;;;;;;-145.69;88.47;72282.00;5072795;28;20636;-76
2022/04/19 02:12:11;;;;;;;4.30;2.93;;;;;;;-145.69;88.05;72270.06;5072776;28;20216;-76
2022/04/19 02:14:41;;;;;;;4.77;2.60;;;;;;;-145.69;88.38;72272.06;5072771;28;20203;-76
2022/04/19 02:17:09;;;;;;;5.17;2.60;;;;;;;-145.69;88.31;72289.97;5072631;28;20233;-76
2022/04/19 02:19:35;;;;;;;8.83;2.63;;;;;;;-145.69;89.46;72297.94;5072952;28;20293;-75
2022/04/19 02:22:02;;;;;;;3.73;2.20;;;;;;;-145.69;89.96;72303.91;5072906;28;20565;-76
2022/04/19 02:24:29;;;;;;;6.75;3.10;;;;;;;-145.69;92.19;72315.84;5072103;28;20513;-76
2022/04/19 02:26:55;;;;;;;6.33;3.07;;;;;;;-145.69;91.76;72325.81;5072704;28;20663;-75
2022/04/19 02:29:24;;;;;;;4.33;2.70;;;;;;;-145.69;91.08;72307.88;5072602;28;20231;-76
2022/04/19 02:31:52;;;;;;;5.50;2.87;;;;;;;-145.69;88.66;72276.03;5072618;28;20190;-76
2022/04/19 02:34:19;;;;;;;4.90;2.80;;;;;;;-145.69;88.29;72266.09;5072847;28;20203;-76
2022/04/19 02:36:45;;;;;;;4.70;2.70;;;;;;;-145.69;87.63;72252.16;5072481;28;20198;-75
2022/04/19 02:39:12;;;;;;;4.07;2.33;;;;;;;-145.69;84.68;72210.38;5072583;28;20673;-76
2022/04/19 02:41:38;;;;;;;5.10;2.50;;;;;;;-145.69;84.07;72200.41;5072731;28;20256;-76
2022/04/19 02:44:08;;;;;;;5.37;2.60;;;;;;;-145.69;83.18;72184.50;5072828;28;20198;-75
2022/04/19 02:46:35;;;;;;;5.47;2.60;;;;;;;-145.69;83.46;72186.47;5072535;28;20199;-76
2022/04/19 02:49:04;;;;;;;6.07;2.07;;;;;;;-145.69;84.85;72208.38;5072472;28;20567;-76
2022/04/19 02:51:31;;;;;;;5.87;2.47;;;;;;;-145.69;83.68;72196.44;5072642;28;20264;-76
2022/04/19 02:53:58;;;;;;;4.70;2.70;;;;;;;-145.69;84.02;72200.41;5072888;28;20260;-76
2022/04/19 02:56:24;;;;;;;3.13;2.00;;;;;;;-145.69;84.42;72208.38;5072766;28;20198;-76
2022/04/19 02:58:51;;;;;;;4.03;2.80;;;;;;;-145.69;84.15;72206.38;5063212;28;20206;-76
2022/04/19 03:01:18;;;;;;;5.13;2.60;;;;;;;-145.69;84.37;72202.41;5052928;28;20199;-76
2022/04/19 03:03:45;;;;;;;4.47;2.90;;;;;;;-145.69;83.72;72214.34;5072116;28;20191;-76
2022/04/19 03:06:12;;;;;;;6.57;2.90;;;;;;;-145.69;85.07;72212.34;5072706;28;20203;-76
2022/04/19 03:08:40;;;;;;;6.30;2.73;;;;;;;-145.69;86.16;72236.22;5072623;28;20248;-76
2022/04/19 03:11:07;;;;;;;5.33;2.90;;;;;;;-145.69;89.28;72270.06;5072688;28;20253;-76
2022/04/19 03:13:35;;;;;;;4.47;2.53;;;;;;;-145.69;90.87;72305.91;5071988;28;20289;-76
2022/04/19 03:16:02;;;;;;;5.93;2.80;;;;;;;-145.69;92.72;72335.75;5072736;28;20578;-76
2022/04/19 03:18:30;;;;;;;6.57;2.70;;;;;;;-145.69;93.51;72339.72;5076359;28;20301;-76
2022/04/19 03:20:56;;;;;;;4.77;2.90;;;;;;;-145.69;95.20;72357.66;5076284;28;20198;-76
2022/04/19 03:28:53;;;;;;;3.83;2.73;;;;;;;-145.69;95.55;72361.63;5076033;28;20202;-76
2022/04/19 03:31:20;;;;;;;5.20;3.10;;;;;;;-145.69;96.60;72361.63;5076011;28;20207;-76
2022/04/19 03:33:52;;;;;;;5.17;2.70;;;;;;;-145.69;96.18;72357.66;5075787;28;20202;-76
2022/04/19 03:36:18;;;;;;;5.10;3.30;;;;;;;-145.69;96.14;72357.66;5076078;28;20202;-76
2022/04/19 03:38:46;;;;;;;5.30;2.73;;;;;;;-145.69;95.54;72351.66;5075867;28;20603;-76
2022/04/19 03:41:13;;;;;;;5.63;3.07;;;;;;;-145.69;93.99;72333.75;5075307;28;20202;-76
2022/04/19 03:43:41;;;;;;;6.60;2.90;;;;;;;-145.69;93.08;72329.78;5075700;28;20256;-76
2022/04/19 03:46:08;;;;;;;5.80;2.90;;;;;;;-145.69;94.67;72341.72;5075792;28;20210;-76
2022/04/19 03:48:34;;;;;;;5.53;3.03;;;;;;;-145.69;95.41;72357.66;5075645;28;20202;-76
2022/04/19 03:51:02;;;;;;;8.53;3.40;;;;;;;-145.69;95.20;72353.66;5069242;28;20225;-76
2022/04/19 03:53:28;;;;;;;5.50;2.80;;;;;;;-145.69;95.39;72365.59;5066148;28;20203;-76
2022/04/19 03:55:56;;;;;;;7.20;3.20;;;;;;;-145.69;96.04;72363.63;5073558;28;20198;-75
2022/04/19 03:58:23;;;;;;;4.70;2.73;;;;;;;-145.69;97.83;72377.53;5055531;28;20226;-76
2022/04/19 04:00:49;;;;;;;3.97;2.70;;;;;;;-145.69;98.53;72381.53;5055271;28;20670;-76
2022/04/19 04:03:16;;;;;;;4.77;3.00;;;;;;;-145.69;98.40;72377.53;5074253;28;20206;-76
2022/04/19 04:05:42;;;;;;;6.30;3.00;;;;;;;-145.69;97.65;72373.56;5075344;28;20202;-75
2022/04/19 04:08:09;;;;;;;7.90;3.00;;;;;;;-145.69;97.97;72385.50;5075134;28;20285;-76
2022/04/19 04:10:35;;;;;;;5.53;2.90;;;;;;;-145.69;98.84;72379.53;5074517;28;20230;-76
2022/04/19 04:13:04;;;;;;;9.43;3.00;;;;;;;-145.69;98.62;72377.53;5075307;28;20222;-76
2022/04/19 04:15:31;;;;;;;4.33;2.83;;;;;;;-145.69;98.78;72389.50;5075211;28;20210;-76
2022/04/19 04:17:57;;;;;;;6.70;2.97;;;;;;;-145.69;99.21;72393.47;5074735;28;20262;-76
2022/04/19 04:20:24;;;;;;;6.53;3.00;;;;;;;-145.69;98.82;72391.47;5073656;28;20190;-76
2022/04/19 04:22:50;;;;;;;6.60;3.10;;;;;;;-145.69;98.78;72387.50;5074780;28;20201;-76
2022/04/19 04:25:17;;;;;;;6.97;3.00;;;;;;;-145.69;98.65;72389.50;5074924;28;20625;-76
2022/04/19 04:27:43;;;;;;;5.43;3.03;;;;;;;-145.69;98.93;72381.53;5074335;28;20653;-76
2022/04/19 04:30:12;;;;;;;5.77;3.17;;;;;;;-145.69;98.76;72379.53;5074515;28;20254;-75
2022/04/19 04:32:38;;;;;;;6.07;3.20;;;;;;;-145.69;99.51;72377.53;5074620;28;20202;-76
2022/04/19 04:35:06;;;;;;;5.70;3.20;;;;;;;-145.69;99.15;72375.56;5074318;28;20673;-76
2022/04/19 04:37:33;;;;;;;5.60;3.30;;;;;;;-145.69;98.91;72369.59;5074666;28;20604;-76
2022/04/19 04:39:59;;;;;;;6.23;3.10;;;;;;;-145.69;99.15;72381.53;5074865;28;20211;-76
2022/04/19 04:42:26;;;;;;;6.87;2.93;;;;;;;-145.69;98.34;72373.56;5074854;28;20195;-76
2022/04/19 04:44:53;;;;;;;4.87;2.67;;;;;;;-145.69;97.94;72359.63;5074702;28;20199;-76
2022/04/19 04:50:05;;;;;;;6.20;3.33;;;;;;;-145.69;98.18;72357.66;5074150;28;20233;-76
2022/04/19 04:52:32;;;;;;;5.00;3.00;;;;;;;-145.69;98.67;72365.59;5074204;28;20218;-75
2022/04/19 04:54:58;;;;;;;6.90;2.90;;;;;;;-145.69;100.00;72389.50;5074260;28;20666;-76
2022/04/19 04:57:25;;;;;;;6.00;3.00;;;;;;;-145.69;100.00;72375.56;5074396;28;20210;-76
2022/04/19 04:59:51;;;;;;;9.53;3.23;;;;;;;-145.69;98.31;72347.69;5074275;28;20607;-76
2022/04/19 05:02:18;;;;;;;7.80;3.23;;;;;;;-145.69;97.46;72341.72;5073816;28;20194;-76
2022/04/19 05:04:46;;;;;;;6.20;3.30;;;;;;;-145.69;96.59;72321.81;5073539;28;20210;-76
2022/04/19 05:07:15;;;;;;;9.00;2.97;;;;;;;-145.69;98.66;72349.69;5074018;28;20286;-76
2022/04/19 05:09:41;;;;;;;9.40;3.20;;;;;;;-145.69;100.00;72365.59;5074305;28;20226;-76
2022/04/19 05:12:09;;;;;;;11.17;3.13;;;;;;;-145.69;100.00;72349.69;5073510;28;20241;-76
2022/04/19 05:14:36;;;;;;;5.97;3.00;;;;;;;-145.69;100.00;72333.75;5073903;28;20199;-76
2022/04/19 05:17:02;;;;;;;4.77;2.70;;;;;;;-145.69;100.00;72329.78;5073558;28;20313;-76
2022/04/19 05:19:29;;;;;;;9.97;3.77;;;;;;;-145.69;98.56;72303.91;5073584;28;20313;-76
2022/04/19 05:21:57;;;;;;;8.90;3.13;;;;;;;-145.69;97.77;72284.00;5073279;28;20203;-75
2022/04/19 05:24:23;;;;;;;7.67;3.27;;;;;;;-145.69;97.92;72278.03;5073664;28;20230;-76
2022/04/19 05:26:50;;;;;;;11.00;2.80;;;;;;;-145.69;97.82;72278.03;5073769;28;20199;-75
2022/04/19 05:29:17;;;;;;;6.97;2.93;;;;;;;-145.69;98.09;72272.06;5073372;28;20195;-76
2022/04/19 05:31:43;;;;;;;7.47;3.10;;;;;;;-145.69;98.46;72270.06;5072944;28;20199;-76
2022/04/19 05:34:10;;;;;;;10.53;3.40;;;;;;;-145.69;98.81;72252.16;5073492;28;20293;-76
2022/04/19 05:36:37;;;;;;;6.70;2.77;;;;;;;-145.69;99.13;72250.16;5073516;28;20195;-76
2022/04/19 05:39:04;;;;;;;10.83;3.20;;;;;;;-145.69;99.50;72244.19;5072367;28;20666;-76
2022/04/19 05:41:31;;;;;;;9.00;2.73;;;;;;;-145.69;100.00;72254.16;5073200;28;20574;-75
2022/04/19 05:43:57;;;;;;;5.60;2.83;;;;;;;-145.69;100.00;72258.13;5073946;28;20199;-75
2022/04/19 05:46:24;;;;;;;11.67;2.93;;;;;;;-145.69;100.00;72246.19;5072976;28;20194;-76
2022/04/19 05:48:50;;;;;;;5.67;3.10;;;;;;;-145.69;100.00;72246.19;5073303;28;20203;-76
2022/04/19 05:51:17;;;;;;;6.17;3.17;;;;;;;-145.69;100.00;72246.19;5073064;28;20227;-76
2022/04/19 05:53:44;;;;;;;6.63;3.13;;;;;;;-145.69;98.97;72232.25;5070185;28;20202;-75
2022/04/19 05:56:12;;;;;;;3.67;2.27;;;;;;;-145.69;99.40;72230.25;5052887;28;20199;-76
2022/04/19 05:58:39;;;;;;;4.60;2.40;;;;;;;-145.69;98.25;72236.22;5052963;28;20601;-76
2022/04/19 06:01:06;;;;;;;7.10;2.70;;;;;;;-145.69;98.87;72234.25;5052845;28;20206;-76
2022/04/19 06:06:18;;;;;;;5.07;2.60;;;;;;;-145.69;99.65;72210.38;5072970;28;20248;-75
2022/04/19 06:08:44;;;;;;;6.43;2.67;;;;;;;-145.69;98.84;72192.44;5073061;28;20244;-76
2022/04/19 06:11:12;;;;;;;8.87;2.47;;;;;;;-145.69;98.03;72166.56;5072726;28;20719;-76
2022/04/19 06:13:40;;;;;;;4.93;2.37;;;;;;;-145.69;97.33;72148.66;5072931;28;20290;-76
2022/04/19 06:16:07;;;;;;;7.23;2.87;;;;;;;-145.69;96.02;72118.81;5073013;28;20238;-76
2022/04/19 06:18:33;;;;;;;5.53;2.70;;;;;;;-145.69;96.52;72079.00;5072795;28;20202;-76
2022/04/19 06:21:00;;;;;;;7.67;2.93;;;;;;;-145.69;94.30;72071.03;5072740;28;20207;-76
2022/04/19 06:23:27;;;;;;;3.73;2.33;;;;;;;-145.69;94.12;72059.09;5072856;28;20199;-75
2022/04/19 06:25:53;;;;;;;7.27;2.40;;;;;;;-145.69;92.40;72027.25;5072516;28;20194;-76
2022/04/19 06:28:21;;;;;;;3.13;2.20;;;;;;;-145.69;89.95;71977.50;5072971;28;20209;-76
2022/04/19 06:30:48;;;;;;;2.90;1.80;;;;;;;-145.69;85.48;71929.75;5072412;28;20233;-76
2022/04/19 06:33:14;;;;;;;2.97;1.77;;;;;;;-145.69;80.47;71885.97;5072309;28;20194;-76
2022/04/19 06:35:41;;;;;;;4.33;1.70;;;;;;;-145.69;79.51;71844.16;5072758;28;20567;-76
2022/04/19 06:38:08;;;;;;;4.57;1.93;;;;;;;-145.69;79.06;71802.38;5072595;28;20256;-75
2022/04/19 06:40:35;;;;;;;3.27;1.97;;;;;;;-145.69;79.75;71774.50;5072553;28;20206;-76
2022/04/19 06:43:02;;;;;;;4.97;1.97;;;;;;;-145.69;77.06;71752.63;5072717;28;20195;-76
2022/04/19 06:45:30;;;;;;;3.37;1.97;;;;;;;-145.69;75.85;71736.72;5072740;28;20203;-76
2022/04/19 06:47:58;;;;;;;2.97;1.70;;;;;;;-145.69;73.75;71716.81;5072356;28;20234;-76
2022/04/19 06:50:25;;;;;;;2.27;1.40;;;;;;;-145.69;75.40;71696.91;5073633;28;20233;-76
2022/04/19 06:52:52;;;;;;;2.47;1.70;;;;;;;-145.69;73.97;71677.00;5076568;28;20202;-76
2022/04/19 06:55:19;;;;;;;2.53;1.50;;;;;;;-145.69;69.76;71651.13;5076468;28;20662;-76
2022/04/19 06:57:45;;;;;;;2.63;1.70;;;;;;;-145.69;70.76;71629.25;5076507;28;20205;-76
2022/04/19 07:00:13;;;;;;;4.13;1.73;;;;;;;-145.69;71.84;71597.41;5076643;28;20203;-76
2022/04/19 07:02:41;;;;;;;3.03;1.83;;;;;;;-145.69;66.63;71581.50;5076258;28;20687;-76
2022/04/19 07:05:08;;;;;;;4.73;2.03;;;;;;;-145.69;63.94;71563.56;5076188;28;20207;-76
2022/04/19 07:07:35;;;;;;;7.73;1.93;;;;;;;-145.69;67.06;71545.66;5076262;28;20199;-76
2022/04/19 07:10:01;;;;;;;5.47;1.87;;;;;;;-145.69;64.53;71529.75;5076477;28;20199;-76
2022/04/19 07:12:28;;;;;;;3.93;1.90;;;;;;;-145.69;65.50;71523.78;5076621;28;20199;-76
2022/04/19 07:14:54;;;;;;;1.97;1.23;;;;;;;-145.69;66.58;71503.88;5076531;28;20312;-76
2022/04/19 07:17:21;;;;;;;3.03;2.00;;;;;;;-145.69;67.28;71476.03;5075759;28;20242;-76
2022/04/19 07:28:01;;;;;;;3.03;1.43;;;;;;;-145.69;66.45;71366.56;5054765;28;20325;-75
2022/04/19 07:30:28;;;;;;;4.37;2.00;;;;;;;-145.69;67.32;71352.66;5075626;28;20697;-77
2022/04/19 07:32:55;;;;;;;3.20;2.03;;;;;;;-145.69;69.05;71334.75;5075635;28;20566;-75
2022/04/19 07:35:23;;;;;;;3.70;1.70;;;;;;;-145.69;60.66;71336.72;5075873;28;20199;-76
2022/04/19 07:37:51;;;;;;;7.30;2.13;;;;;;;-145.69;64.24;71312.84;5075420;28;20206;-76
2022/04/19 07:40:18;;;;;;;4.10;2.33;;;;;;;-145.69;67.23;71283.00;5075534;28;20709;-76
2022/04/19 07:42:44;;;;;;;4.73;2.77;;;;;;;-145.69;65.10;71259.13;5075412;28;20231;-76
2022/04/19 07:45:11;;;;;;;3.50;2.40;;;;;;;-145.69;61.71;71275.03;5075188;28;20202;-76
2022/04/19 07:47:38;;;;;;;3.77;2.17;;;;;;;-145.69;59.87;71247.19;5075366;28;20256;-76
2022/04/19 07:50:05;;;;;;;4.93;2.40;;;;;;;-145.69;57.74;71255.16;5075262;28;20600;-77
2022/04/19 07:52:33;;;;;;;5.23;2.20;;;;;;;-145.69;55.78;71247.19;5074837;28;20203;-76
2022/04/19 07:54:59;;;;;;;4.53;2.00;;;;;;;-145.69;56.29;71235.25;5075334;28;20205;-77
2022/04/19 07:57:26;;;;;;;4.83;2.30;;;;;;;-145.69;54.33;71233.25;5075220;28;20281;-76
2022/04/19 07:59:53;;;;;;;3.83;2.10;;;;;;;-145.69;53.71;71217.34;5075450;28;20194;-77
2022/04/19 08:02:20;;;;;;;2.80;2.00;;;;;;;-145.69;55.13;71205.41;5074110;28;20255;-77
2022/04/19 08:04:47;;;;;;;4.27;2.90;;;;;;;-145.69;52.49;71209.38;5070542;28;20226;-76
2022/04/19 08:07:13;;;;;;;5.10;2.50;;;;;;;-145.69;46.74;71195.47;5074933;28;20642;-76
2022/04/19 08:09:42;;;;;;;5.80;2.43;;;;;;;-145.69;47.02;71175.56;5075239;28;20205;-77
2022/04/19 08:12:09;;;;;;;7.40;3.23;;;;;;;-145.69;45.88;71177.53;5074826;28;20233;-77
2022/04/19 08:14:41;;;;;;;5.37;2.57;;;;;;;-145.69;48.32;71149.69;5075220;28;20281;-78
2022/04/19 08:17:07;;;;;;;6.70;3.00;;;;;;;-145.69;45.94;71163.63;5074860;28;20231;-76
2022/04/19 08:19:34;;;;;;;4.17;2.40;;;;;;;-145.69;47.58;71167.59;5074863;28;20256;-78
2022/04/19 08:22:00;;;;;;;8.47;2.80;;;;;;;-145.69;47.62;71153.66;5075009;28;20234;-77
2022/04/19 08:24:27;;;;;;;7.00;3.10;;;;;;;-145.69;44.91;71139.75;5075082;28;20679;-77
2022/04/19 08:26:59;;;;;;;6.90;3.03;;;;;;;-145.69;49.23;71131.78;5074593;28;20202;-78
2022/04/19 08:29:27;;;;;;;5.90;2.93;;;;;;;-145.69;46.62;71127.81;5074475;28;20285;-77
2022/04/19 08:31:54;;;;;;;4.10;2.27;;;;;;;-145.69;47.82;71105.91;5074684;28;20313;-77
2022/04/19 08:34:20;;;;;;;4.37;2.33;;;;;;;-145.69;47.42;71099.94;5074257;28;20666;-77
2022/04/19 08:36:47;;;;;;;5.10;2.40;;;;;;;-145.69;45.70;71092.00;5074273;28;20264;-77
2022/04/19 08:39:14;;;;;;;5.73;2.83;;;;;;;-145.69;46.59;71084.03;5074183;28;20623;-77
2022/04/19 08:41:47;;;;;;;5.07;2.23;;;;;;;-145.69;46.89;71076.06;5074365;28;20205;-77
2022/04/19 08:44:18;;;;;;;5.40;2.60;;;;;;;-145.69;45.91;71084.03;5074247;28;20199;-77
2022/04/19 08:46:45;;;;;;;4.73;2.63;;;;;;;-145.69;45.48;71072.09;5074561;28;20205;-77
2022/04/19 08:49:16;;;;;;;6.20;3.00;;;;;;;-145.69;45.67;71068.13;5074321;28;20198;-77
2022/04/19 08:51:48;;;;;;;5.37;2.50;;;;;;;-145.69;45.27;71078.06;5074195;28;20218;-77
2022/04/19 08:59:54;;;;;;;6.27;2.60;;;;;;;-145.69;45.44;71050.22;5073961;28;20206;-76
2022/04/19 09:02:23;;;;;;;11.20;3.10;;;;;;;-145.69;43.93;71076.06;5073984;28;20206;-78
2022/04/19 09:04:52;;;;;;;6.50;2.40;;;;;;;-145.69;43.25;71064.13;5073934;28;20206;-78
2022/04/19 09:07:20;;;;;;;3.47;2.13;;;;;;;-145.69;43.39;71048.22;5074240;28;20230;-78
2022/04/19 09:09:59;;;;;;;6.87;2.73;;;;;;;-145.69;43.11;71080.06;5074162;28;20209;-77
2022/04/19 09:12:28;;;;;;;10.00;3.20;;;;;;;-145.69;45.67;71076.06;5073832;28;20230;-79
2022/04/19 09:15:06;;;;;;;4.13;2.13;;;;;;;-145.69;45.65;71060.16;5073768;28;20195;-81
2022/04/19 09:17:39;;;;;;;2.97;1.77;;;;;;;-145.69;42.10;71058.16;5073895;28;20230;-79
2022/04/19 09:20:18;;;;;;;2.87;1.80;;;;;;;-145.69;42.55;71052.19;5073966;28;20199;-78
2022/04/19 09:22:48;;;;;;;3.97;2.13;;;;;;;-145.69;44.39;71040.25;5073696;28;20211;-78
2022/04/19 09:25:24;;;;;;;7.30;3.13;;;;;;;-145.69;43.60;71056.16;5074014;28;20206;-79
2022/04/19 09:27:51;;;;;;;9.07;2.80;;;;;;;-145.69;42.79;71062.13;5073783;28;20661;-78
2022/04/19 09:30:34;;;;;;;10.27;2.60;;;;;;;-145.69;47.30;71060.16;5072832;28;20206;-80
2022/04/19 09:33:08;;;;;;;3.50;1.97;;;;;;;-145.69;42.92;71062.13;5073719;28;20210;-80
2022/04/19 09:35:37;;;;;;;10.53;2.30;;;;;;;-145.69;44.06;71028.31;5073421;28;20198;-80
2022/04/19 09:38:04;;;;;;;5.67;2.27;;;;;;;-145.69;46.01;71030.31;5073480;28;20206;-80
2022/04/19 09:40:33;;;;;;;6.03;1.97;;;;;;;-145.69;44.38;71024.34;5072964;28;20286;-79
2022/04/19 09:43:10;;;;;;;4.53;2.03;;;;;;;-145.69;45.25;71024.34;5073336;28;20202;-82
2022/04/19 09:45:51;;;;;;;3.70;2.07;;;;;;;-145.69;46.94;71040.25;5073819;28;20209;-80
2022/04/19 09:48:19;;;;;;;3.77;1.93;;;;;;;-145.69;43.79;71028.31;5073799;28;20293;-80
2022/04/19 09:50:50;;;;;;;2.87;1.80;;;;;;;-145.69;43.63;71030.31;5073238;28;20223;-79
2022/04/19 09:53:21;;;;;;;2.17;1.50;;;;;;;-145.69;46.23;71012.41;5073024;28;20205;-77
2022/04/19 09:55:49;;;;;;;3.93;1.93;;;;;;;-145.69;41.91;71004.44;5073494;28;20693;-77
2022/04/19 09:58:16;;;;;;;4.27;1.90;;;;;;;-145.69;45.06;71010.41;5073316;28;20198;-79
2022/04/19 10:00:44;;;;;;;4.90;1.93;;;;;;;-145.69;43.86;71010.41;5073115;28;20199;-80
2022/04/19 10:08:52;;;;;;;4.67;1.77;;;;;;;-145.69;42.25;71012.41;5063094;28;20202;-80
2022/04/19 10:11:19;;;;;;;2.50;1.60;;;;;;;-145.69;44.34;70980.56;5053303;28;20223;-80
2022/04/19 10:13:46;;;;;;;2.93;1.40;;;;;;;-145.69;39.93;71000.47;5053264;28;20217;-79
2022/04/19 10:16:14;;;;;;;2.53;1.50;;;;;;;-145.69;39.93;70968.63;5053009;28;20206;-80
2022/04/19 10:18:44;;;;;;;1.80;1.60;;;;;;;-145.69;40.41;70964.66;5053298;28;20231;-80
2022/04/19 10:21:15;;;;;;;2.93;1.53;;;;;;;-145.69;39.96;70976.59;5052988;28;20404;-80
2022/04/19 10:23:43;;;;;;;4.40;1.67;;;;;;;-145.69;40.01;70988.53;5065446;28;20256;-79
2022/04/19 10:26:14;;;;;;;3.53;1.90;;;;;;;-145.69;41.03;70968.63;5072639;28;20214;-79
2022/04/19 10:28:41;;;;;;;4.27;1.90;;;;;;;-145.69;40.96;70972.59;5073013;28;20280;-79
2022/04/19 10:31:09;;;;;;;2.23;1.63;;;;;;;-145.69;39.27;71006.44;5073004;28;20227;-80
2022/04/19 10:33:50;;;;;;;4.53;1.67;;;;;;;-145.69;41.87;70944.75;5072874;28;20202;-79
2022/04/19 10:36:18;;;;;;;2.40;1.43;;;;;;;-145.69;43.65;70920.88;5073079;28;20209;-80
2022/04/19 10:38:47;;;;;;;5.53;1.90;;;;;;;-145.69;40.29;70948.72;5072964;28;20562;-80
2022/04/19 10:41:48;;;;;;;3.20;1.50;;;;;;;-145.69;40.47;70924.84;5072746;28;20298;-79
2022/04/19 10:44:22;;;;;;;3.07;1.90;;;;;;;-145.69;41.98;70918.88;5072712;28;20260;-80
2022/04/19 10:47:05;;;;;;;2.20;1.40;;;;;;;-145.69;40.43;70897.00;5072857;28;20199;-80
2022/04/19 10:49:47;;;;;;;2.00;1.53;;;;;;;-145.69;44.38;70877.09;5072877;28;20218;-79
2022/04/19 10:52:45;;;;;;;2.20;1.60;;;;;;;-145.69;39.51;70875.13;5072496;28;20231;-81
2022/04/19 10:55:19;;;;;;;4.87;1.60;;;;;;;-145.69;38.76;70883.06;5072795;28;20237;-80
2022/04/19 10:58:09;;;;;;;2.80;1.50;;;;;;;-145.69;38.50;70914.91;5072563;28;20808;-78
2022/04/19 11:00:45;;;;;;;2.47;1.50;;;;;;;-145.69;40.57;70893.03;5072777;28;20256;-79
2022/04/19 11:03:13;;;;;;;1.70;1.10;;;;;;;-145.69;36.63;70906.94;5072492;28;20202;-80
2022/04/19 11:05:44;;;;;;;2.43;1.53;;;;;;;-145.69;40.70;70873.13;5072259;28;20289;-79
2022/04/19 11:08:44;;;;;;;3.97;1.70;;;;;;;-145.69;42.21;70821.41;5072706;28;20207;-78
2022/04/19 11:11:26;;;;;;;2.80;1.83;;;;;;;-145.69;39.08;70817.41;5072395;28;20317;-79
2022/04/19 11:14:18;;;;;;;2.93;1.60;;;;;;;-145.69;38.93;70833.34;5072368;28;20286;-79
2022/04/19 11:16:49;;;;;;;2.17;1.47;;;;;;;-145.69;38.41;70916.91;5072343;28;20242;-79
2022/04/19 11:19:18;;;;;;;3.13;1.88;;;;;;;-145.69;40.93;70867.16;5072338;28;20470;-79
2022/04/19 11:21:57;;;;;;;3.90;1.70;;;;;;;-145.69;39.25;70837.31;5072321;28;20657;-79
2022/04/19 11:25:02;;;;;;;2.13;1.58;;;;;;;-145.69;42.11;70807.47;5072210;28;20218;-79
2022/04/19 11:28:08;;;;;;;3.10;1.70;;;;;;;-145.69;42.33;70795.53;5072014;28;20201;-79
2022/04/19 11:30:36;;;;;;;3.60;1.67;;;;;;;-145.69;43.53;70763.69;5071289;28;20438;-79
2022/04/19 11:33:04;;;;;;;3.25;1.70;;;;;;;-145.69;44.39;70745.78;5072370;28;20317;-79
2022/04/19 11:35:32;;;;;;;3.53;1.95;;;;;;;-145.69;40.05;70735.84;5071997;28;20699;-79
2022/04/19 11:38:04;;;;;;;4.30;1.50;;;;;;;-145.69;41.34;70741.81;5074100;28;20199;-79
2022/04/19 11:48:48;;;;;;;4.40;1.83;;;;;;;-145.69;38.93;70799.50;5075801;28;20213;-78
2022/04/19 11:51:16;;;;;;;6.28;1.98;;;;;;;-145.69;39.69;70771.66;5075390;28;20586;-78
2022/04/19 11:53:44;;;;;;;3.55;1.80;;;;;;;-145.69;39.65;70753.75;5075469;28;20200;-78
2022/04/19 11:56:11;;;;;;;3.35;1.70;;;;;;;-145.69;38.80;70781.59;5075077;28;20447;-78
2022/04/19 11:58:40;;;;;;;2.88;1.63;;;;;;;-145.69;38.81;70791.56;5075492;28;20249;-79
2022/04/19 12:01:09;;;;;;;2.47;1.63;;;;;;;-145.69;39.01;70765.69;5075330;28;20601;-78
2022/04/19 12:03:37;;;;;;;3.35;1.63;;;;;;;-145.69;37.30;70757.72;5075076;28;20289;-79
2022/04/19 12:06:07;;;;;;;4.30;1.50;;;;;;;-145.69;37.81;70735.84;5075281;28;20650;-80